Time;durP1;ratioP1;P1;durP2;ratioP2;P2;SDS_P1;SDS_P2;PMS_P1;PMS_P2;Temp;Humidity;BMP_temperature;BMP_pressure;BME280_temperature;BME280_humidity;BME280_pressure;Samples;Min_cycle;Max_cycle;Signal;HPM_P1;HPM_P2
2023/02/14 00:03:39;;;;;;;24.77;19.40;;;2.00;99.90;;;;;;2615375;54;20366;-68
2023/02/14 00:09:26;;;;;;;28.50;20.10;;;2.00;99.90;;;;;;2615630;54;20410;-72
2023/02/14 00:21:20;;;;;;;33.00;22.57;;;1.70;99.90;;;;;;2615236;54;20413;-71
2023/02/14 00:30:55;;;;;;;20.90;18.37;;;1.80;99.90;;;;;;2615515;54;20386;-70
2023/02/14 00:36:43;;;;;;;22.80;19.10;;;1.90;99.90;;;;;;2615308;54;20514;-72
2023/02/14 00:42:31;;;;;;;22.80;19.30;;;2.00;99.90;;;;;;2615303;54;20977;-71
2023/02/14 00:48:19;;;;;;;24.50;19.13;;;1.70;99.90;;;;;;2615549;54;20118;-70
2023/02/14 00:54:07;;;;;;;22.20;18.50;;;1.80;99.90;;;;;;2615330;54;20222;-70
2023/02/14 00:59:54;;;;;;;22.10;17.73;;;1.80;99.90;;;;;;2615151;54;20191;-69
2023/02/14 01:05:42;;;;;;;22.80;17.23;;;1.60;99.90;;;;;;2615513;54;20122;-70
2023/02/14 01:11:30;;;;;;;25.30;19.13;;;1.60;99.90;;;;;;2614958;54;20130;-70
2023/02/14 01:14:33;;;;;;;23.40;18.40;;;1.50;99.90;;;;;;2614795;54;20411;-70
2023/02/14 01:16:59;;;;;;;22.77;18.80;;;1.40;99.90;;;;;;2615205;54;20161;-70
2023/02/14 01:22:46;;;;;;;24.80;18.80;;;1.60;99.90;;;;;;2615186;54;20119;-70
2023/02/14 01:28:34;;;;;;;24.77;18.33;;;1.40;99.90;;;;;;2615176;54;20189;-69
2023/02/14 01:34:22;;;;;;;22.33;19.27;;;1.30;99.90;;;;;;2615309;54;20137;-69
2023/02/14 01:40:11;;;;;;;25.53;20.57;;;1.30;99.90;;;;;;2615297;54;20134;-70
2023/02/14 01:45:58;;;;;;;24.03;20.40;;;1.40;99.90;;;;;;2615430;54;20382;-70
2023/02/14 01:58:12;;;;;;;26.30;21.47;;;1.30;99.90;;;;;;2615278;54;20936;-69
2023/02/14 02:10:29;;;;;;;23.50;19.73;;;1.10;99.90;;;;;;2613767;54;20537;-71
2023/02/14 02:29:40;;;;;;;34.97;19.80;;;1.10;99.90;;;;;;2613597;54;20531;-70
2023/02/14 02:41:47;;;;;;;23.10;16.70;;;1.00;99.90;;;;;;2613294;54;20458;-70
2023/02/14 02:54:39;;;;;;;23.07;17.13;;;0.90;99.90;;;;;;2614887;54;20362;-70
2023/02/14 03:00:28;;;;;;;20.60;16.50;;;0.80;99.90;;;;;;2614700;54;20375;-70
2023/02/14 03:06:16;;;;;;;19.40;17.37;;;0.90;99.90;;;;;;2615103;54;20394;-69
2023/02/14 03:34:59;;;;;;;19.23;16.70;;;0.70;99.90;;;;;;2614900;54;20423;-69
2023/02/14 03:53:37;;;;;;;26.17;20.40;;;0.60;99.90;;;;;;2614270;39;20838;-70
2023/02/14 03:59:27;;;;;;;20.63;18.50;;;0.60;99.90;;;;;;2614593;39;20759;-69
2023/02/14 04:05:26;;;;;;;20.90;18.67;;;0.50;99.90;;;;;;2613974;54;20449;-70
2023/02/14 04:11:13;;;;;;;20.70;18.60;;;0.50;99.90;;;;;;2613795;54;20488;-70
2023/02/14 04:23:07;;;;;;;21.60;18.70;;;0.40;99.90;;;;;;2613404;54;20378;-71
2023/02/14 04:28:54;;;;;;;24.00;20.03;;;0.30;99.90;;;;;;2615389;54;20130;-71
2023/02/14 04:34:41;;;;;;;27.20;18.77;;;0.30;99.90;;;;;;2615419;54;20621;-71
2023/02/14 04:37:57;;;;;;;20.97;18.77;;;0.30;99.90;;;;;;2614572;54;20410;-71
2023/02/14 04:43:44;;;;;;;21.10;18.90;;;0.20;99.90;;;;;;2615482;54;20924;-70
2023/02/14 04:49:32;;;;;;;20.30;18.20;;;0.30;99.90;;;;;;2615164;54;20122;-71
2023/02/14 04:55:20;;;;;;;19.70;17.70;;;0.40;99.90;;;;;;2615481;54;20360;-71
2023/02/14 05:01:07;;;;;;;21.03;19.03;;;0.30;99.90;;;;;;2614999;54;20134;-69
2023/02/14 05:06:55;;;;;;;20.37;18.37;;;0.20;99.90;;;;;;2615421;54;20166;-71
2023/02/14 05:12:43;;;;;;;20.93;18.80;;;0.10;99.90;;;;;;2614933;54;20157;-71
2023/02/14 05:18:31;;;;;;;22.07;18.03;;;0.00;99.90;;;;;;2615300;54;20114;-69
2023/02/14 05:24:18;;;;;;;21.40;19.20;;;0.00;99.90;;;;;;2615117;54;20135;-71
2023/02/14 05:30:06;;;;;;;23.33;19.73;;;0.10;99.90;;;;;;2615199;54;20696;-71
2023/02/14 05:33:27;;;;;;;21.60;19.43;;;0.00;99.90;;;;;;2614950;54;20490;-71
2023/02/14 05:35:52;;;;;;;21.80;19.50;;;0.00;99.90;;;;;;2615017;54;20398;-70
2023/02/14 05:41:40;;;;;;;20.27;18.03;;;0.00;99.90;;;;;;2614981;54;20121;-70
2023/02/14 05:47:27;;;;;;;20.57;18.37;;;0.00;99.90;;;;;;2614959;54;20146;-71
2023/02/14 05:53:15;;;;;;;24.80;19.43;;;-0.10;99.90;;;;;;2614965;54;20689;-70
2023/02/14 05:59:03;;;;;;;19.10;17.23;;;-0.20;99.90;;;;;;2614807;54;20378;-71
2023/02/14 06:04:51;;;;;;;25.80;18.50;;;-0.30;99.90;;;;;;2615546;39;20527;-71
2023/02/14 06:10:39;;;;;;;22.47;18.10;;;-0.20;99.90;;;;;;2615014;54;20163;-71
2023/02/14 06:16:26;;;;;;;21.73;17.07;;;-0.10;99.90;;;;;;2615064;54;20146;-70
2023/02/14 06:22:15;;;;;;;24.43;18.30;;;-0.10;99.90;;;;;;2615014;54;20127;-70
2023/02/14 06:28:02;;;;;;;23.00;18.57;;;-0.30;99.90;;;;;;2615392;39;20698;-71
2023/02/14 06:37:58;;;;;;;19.20;15.57;;;-0.20;99.90;;;;;;2615094;54;20486;-72
2023/02/14 06:43:47;;;;;;;21.13;17.00;;;-0.20;99.90;;;;;;2615065;54;21338;-71
2023/02/14 06:49:35;;;;;;;22.97;17.03;;;-0.20;99.90;;;;;;2614836;54;20351;-70
2023/02/14 06:55:23;;;;;;;20.90;18.57;;;-0.20;99.90;;;;;;2614905;54;20142;-70
2023/02/14 07:01:10;;;;;;;22.57;19.60;;;-0.10;99.90;;;;;;2614713;54;20557;-70
2023/02/14 07:07:00;;;;;;;24.80;17.37;;;-0.20;99.90;;;;;;2615348;39;20521;-71
2023/02/14 07:12:48;;;;;;;23.20;17.50;;;-0.20;99.90;;;;;;2615427;54;20343;-71
2023/02/14 07:15:51;;;;;;;27.23;18.10;;;0.00;99.90;;;;;;2615650;54;20403;-70
2023/02/14 07:18:17;;;;;;;23.20;17.43;;;0.00;99.90;;;;;;2615602;54;20226;-69
2023/02/14 07:24:05;;;;;;;23.47;18.37;;;0.00;99.90;;;;;;2616239;39;20520;-70
2023/02/14 07:29:52;;;;;;;23.27;19.50;;;0.30;99.90;;;;;;2615622;54;20170;-70
2023/02/14 07:35:39;;;;;;;24.50;19.40;;;1.00;99.90;;;;;;2615748;54;20114;-70
2023/02/14 07:44:49;;;;;;;19.67;17.40;;;4.80;99.90;;;;;;2615458;54;20402;-71
2023/02/14 07:50:37;;;;;;;24.53;21.87;;;5.80;99.90;;;;;;2615772;54;20146;-71
2023/02/14 07:56:25;;;;;;;24.10;21.50;;;6.70;99.90;;;;;;2616044;39;20534;-71
2023/02/14 08:02:12;;;;;;;30.33;26.20;;;7.30;99.90;;;;;;2615209;54;20681;-70
2023/02/14 08:08:00;;;;;;;31.50;28.30;;;8.10;99.90;;;;;;2616043;31;20632;-71
2023/02/14 08:13:48;;;;;;;30.27;27.57;;;8.70;93.20;;;;;;2615565;54;20115;-71
2023/02/14 08:19:36;;;;;;;28.07;25.60;;;9.40;73.20;;;;;;2615326;54;20872;-71
2023/02/14 08:25:24;;;;;;;32.50;29.30;;;10.20;73.20;;;;;;2615228;54;20134;-71
2023/02/14 08:31:11;;;;;;;34.67;31.30;;;11.00;57.10;;;;;;2615050;54;20137;-71
2023/02/14 08:36:59;;;;;;;33.53;30.20;;;11.90;47.40;;;;;;2615461;54;20127;-71
2023/02/14 08:40:15;;;;;;;34.93;31.13;;;12.10;45.40;;;;;;2615176;31;20854;-71
2023/02/14 08:42:40;;;;;;;32.67;29.87;;;12.70;38.00;;;;;;2614897;54;20186;-70
2023/02/14 08:48:28;;;;;;;29.60;27.20;;;13.60;36.80;;;;;;2615190;54;20134;-71
2023/02/14 08:54:15;;;;;;;28.57;26.13;;;14.80;25.80;;;;;;2615114;54;20138;-70
2023/02/14 09:00:04;;;;;;;27.37;24.83;;;15.50;12.40;;;;;;2615240;39;20644;-71
2023/02/14 09:05:52;;;;;;;26.10;23.90;;;16.90;7.70;;;;;;2615057;54;20371;-71
2023/02/14 09:11:40;;;;;;;24.27;22.20;;;16.30;6.60;;;;;;2614831;54;20636;-70
2023/02/14 09:17:29;;;;;;;26.43;24.17;;;15.50;1.50;;;;;;2615137;54;20118;-70
2023/02/14 09:23:17;;;;;;;23.60;21.80;;;16.50;3.40;;;;;;2614784;54;20367;-70
2023/02/14 09:29:05;;;;;;;24.30;22.40;;;17.20;1.20;;;;;;2614942;54;20139;-69
2023/02/14 09:34:52;;;;;;;23.93;22.07;;;16.90;1.00;;;;;;2614866;54;20347;-69
2023/02/14 09:44:46;;;;;;;24.40;22.50;;;17.70;1.00;;;;;;2615028;54;20391;-71
2023/02/14 10:30:22;;;;;;;24.80;22.70;;;20.60;1.00;;;;;;2613298;54;20371;-70
2023/02/14 10:40:15;;;;;;;25.00;23.30;;;20.60;1.00;;;;;;2613335;54;20403;-71
2023/02/14 11:02:14;;;;;;;24.00;22.40;;;21.10;1.00;;;;;;2615384;54;20387;-72
2023/02/14 11:14:39;;;;;;;23.37;21.67;;;20.80;1.00;;;;;;2615582;54;20382;-70
2023/02/14 11:20:29;;;;;;;25.33;23.40;;;21.00;1.00;;;;;;2615241;54;20387;-71
2023/02/14 11:26:24;;;;;;;22.30;20.80;;;21.00;1.00;;;;;;2615871;39;20708;-71
2023/02/14 11:32:15;;;;;;;22.60;21.10;;;23.00;1.00;;;;;;2615168;54;20359;-71
2023/02/14 11:38:05;;;;;;;22.37;20.80;;;20.30;1.00;;;;;;2615342;54;20485;-71
2023/02/14 11:53:43;;;;;;;22.73;21.03;;;22.60;1.00;;;;;;2613723;54;20398;-71
2023/02/14 12:06:01;;;;;;;22.93;21.07;;;22.00;1.00;;;;;;2613816;54;20386;-69
2023/02/14 12:11:55;;;;;;;22.50;20.97;;;20.40;1.00;;;;;;2613377;54;20441;-70
2023/02/14 12:17:45;;;;;;;21.53;20.00;;;21.20;1.00;;;;;;2613625;54;20955;-71
2023/02/14 12:23:39;;;;;;;22.30;20.80;;;20.40;1.00;;;;;;2613787;54;20358;-71
2023/02/14 12:36:08;;;;;;;23.77;22.00;;;22.50;1.00;;;;;;2615054;54;20391;-70
2023/02/14 13:08:13;;;;;;;22.40;20.80;;;25.00;1.00;;;;;;2614799;54;20362;-71
2023/02/14 13:14:28;;;;;;;22.97;21.10;;;20.90;1.00;;;;;;2614951;54;20398;-71
2023/02/14 13:20:18;;;;;;;22.33;20.83;;;21.50;1.00;;;;;;2614672;54;20351;-70
2023/02/14 13:26:09;;;;;;;22.40;20.87;;;22.80;1.00;;;;;;2615122;54;20363;-71
2023/02/14 13:32:00;;;;;;;21.67;20.27;;;24.00;1.00;;;;;;2614736;54;20383;-72
2023/02/14 13:37:57;;;;;;;22.13;20.53;;;20.00;1.00;;;;;;2614804;54;20394;-70
2023/02/14 13:47:23;;;;;;;22.23;20.50;;;20.00;1.00;;;;;;2615273;39;20920;-71
2023/02/14 13:53:11;;;;;;;21.00;19.20;;;23.30;1.00;;;;;;2614979;54;20424;-71
2023/02/14 13:59:04;;;;;;;21.57;20.07;;;21.60;1.00;;;;;;2615275;39;20751;-71
2023/02/14 14:04:52;;;;;;;21.60;20.07;;;20.60;1.00;;;;;;2614563;54;20392;-72
2023/02/14 14:10:43;;;;;;;22.13;20.63;;;22.30;1.00;;;;;;2614593;54;20111;-71
2023/02/14 14:16:33;;;;;;;22.67;20.90;;;23.60;1.00;;;;;;2614589;54;20522;-70
2023/02/14 14:22:21;;;;;;;21.50;20.00;;;23.20;1.00;;;;;;2614731;54;20411;-71
2023/02/14 14:34:35;;;;;;;21.37;19.83;;;20.40;1.00;;;;;;2614886;54;20340;-71
2023/02/14 14:40:28;;;;;;;24.20;22.37;;;20.60;1.00;;;;;;2614960;39;20971;-71
2023/02/14 14:49:37;;;;;;;22.77;21.13;;;21.10;1.00;;;;;;2614498;54;20491;-70
2023/02/14 14:55:30;;;;;;;21.90;20.20;;;20.30;1.00;;;;;;2614852;54;20114;-71
2023/02/14 15:01:27;;;;;;;23.43;21.80;;;21.80;1.00;;;;;;2614283;54;20375;-70
2023/02/14 15:07:29;;;;;;;24.07;22.07;;;21.10;1.00;;;;;;2614618;54;20410;-70
2023/02/14 15:19:33;;;;;;;23.43;21.63;;;20.20;1.00;;;;;;2614481;54;20383;-70
2023/02/14 15:25:26;;;;;;;22.43;20.83;;;21.20;1.00;;;;;;2614394;54;20912;-70
2023/02/14 15:31:13;;;;;;;22.80;20.90;;;20.40;1.00;;;;;;2614557;54;20929;-72
2023/02/14 15:37:04;;;;;;;22.93;21.20;;;20.80;1.00;;;;;;2615704;39;20645;-70
2023/02/14 15:42:56;;;;;;;22.17;20.57;;;19.70;1.00;;;;;;2615143;54;20358;-70
2023/02/14 15:52:06;;;;;;;22.10;20.50;;;18.20;1.00;;;;;;2615136;46;20410;-70
2023/02/14 15:58:01;;;;;;;20.40;19.00;;;17.10;1.00;;;;;;2615146;54;20392;-71
2023/02/14 16:03:56;;;;;;;23.90;22.10;;;17.90;1.00;;;;;;2615392;54;21110;-71
2023/02/14 16:09:43;;;;;;;23.97;21.73;;;15.90;1.00;;;;;;2615287;54;20402;-71
2023/02/14 16:15:33;;;;;;;24.30;22.37;;;14.30;1.00;;;;;;2615374;54;20126;-70
2023/02/14 16:21:26;;;;;;;22.77;20.73;;;13.30;3.50;;;;;;2614882;54;21235;-70
2023/02/14 16:27:14;;;;;;;23.73;21.73;;;12.60;9.30;;;;;;2614962;54;20379;-71
2023/02/14 16:33:02;;;;;;;22.00;20.00;;;12.20;17.90;;;;;;2615136;54;20182;-71
2023/02/14 16:38:50;;;;;;;23.20;21.10;;;11.80;26.10;;;;;;2615207;54;20225;-70
2023/02/14 16:44:38;;;;;;;25.80;23.60;;;11.40;35.90;;;;;;2615791;39;20757;-71
2023/02/14 16:57:21;;;;;;;22.77;20.43;;;10.10;84.10;;;;;;2613617;54;20369;-71
2023/02/14 17:03:10;;;;;;;23.47;20.97;;;9.80;99.90;;;;;;2613971;54;20439;-71
2023/02/14 17:09:01;;;;;;;23.07;20.63;;;9.50;99.90;;;;;;2613887;54;20367;-70
2023/02/14 17:14:52;;;;;;;23.23;20.73;;;9.20;99.90;;;;;;2613789;54;21053;-70
2023/02/14 17:24:02;;;;;;;21.50;18.90;;;8.80;99.90;;;;;;2613821;54;20391;-70
2023/02/14 17:29:50;;;;;;;21.93;18.50;;;8.80;99.90;;;;;;2614834;54;20392;-70
2023/02/14 17:35:38;;;;;;;21.23;19.17;;;8.50;99.90;;;;;;2615690;39;20697;-71
2023/02/14 17:41:28;;;;;;;21.07;18.87;;;8.40;99.90;;;;;;2614667;54;20166;-70
2023/02/14 17:47:17;;;;;;;23.57;21.10;;;8.10;99.90;;;;;;2615317;54;20419;-70
2023/02/14 17:53:04;;;;;;;22.00;19.73;;;8.00;99.90;;;;;;2614705;54;20426;-71
2023/02/14 17:56:20;;;;;;;23.50;20.93;;;7.90;99.90;;;;;;2614356;47;20412;-71
2023/02/14 18:02:08;;;;;;;27.23;23.43;;;7.70;99.90;;;;;;2614680;54;20419;-71
2023/02/14 18:07:56;;;;;;;26.13;20.10;;;7.50;99.90;;;;;;2614889;54;20359;-70
2023/02/14 18:13:45;;;;;;;25.43;19.90;;;7.40;99.90;;;;;;2614875;54;20383;-71
2023/02/14 18:19:32;;;;;;;30.13;20.57;;;7.10;99.90;;;;;;2615087;54;21123;-70
2023/02/14 18:25:20;;;;;;;22.10;18.83;;;6.90;99.90;;;;;;2614932;54;20119;-71
2023/02/14 18:31:14;;;;;;;25.60;21.60;;;6.70;99.90;;;;;;2614965;54;20149;-71
2023/02/14 18:37:01;;;;;;;36.07;24.77;;;6.60;99.90;;;;;;2615021;54;20431;-71
2023/02/14 18:42:49;;;;;;;33.73;24.47;;;6.50;99.90;;;;;;2614832;54;20672;-70
2023/02/14 18:48:38;;;;;;;31.60;21.93;;;6.30;99.90;;;;;;2614841;54;20161;-71
2023/02/14 18:51:48;;;;;;;30.70;24.73;;;6.30;99.90;;;;;;2615047;39;20814;-72
2023/02/14 18:54:14;;;;;;;32.33;22.03;;;6.20;99.90;;;;;;2614660;54;20418;-71
2023/02/14 19:00:05;;;;;;;32.13;23.93;;;6.00;99.90;;;;;;2614587;54;20150;-70
2023/02/14 19:05:53;;;;;;;25.07;20.40;;;6.00;99.90;;;;;;2615371;54;20355;-71
2023/02/14 19:11:40;;;;;;;22.80;20.37;;;5.80;99.90;;;;;;2615280;54;20135;-71
2023/02/14 19:17:28;;;;;;;30.57;22.80;;;5.60;99.90;;;;;;2615906;54;20143;-71
2023/02/14 19:23:16;;;;;;;35.47;23.37;;;5.50;99.90;;;;;;2615332;54;20183;-71
2023/02/14 19:29:07;;;;;;;25.13;20.67;;;5.40;99.90;;;;;;2615481;54;20178;-72
2023/02/14 19:34:55;;;;;;;35.70;22.57;;;5.30;99.90;;;;;;2615627;54;20362;-70
2023/02/14 19:40:44;;;;;;;29.80;21.13;;;5.40;99.90;;;;;;2615231;54;20150;-70
2023/02/14 19:46:32;;;;;;;37.47;23.83;;;5.40;99.90;;;;;;2615511;54;20397;-71
2023/02/14 19:56:24;;;;;;;32.60;22.20;;;5.00;99.90;;;;;;2615910;39;20506;-71
2023/02/14 20:02:14;;;;;;;28.30;20.37;;;4.80;99.90;;;;;;2615435;54;20510;-70
2023/02/14 20:08:02;;;;;;;25.60;20.13;;;4.50;99.90;;;;;;2615894;39;20822;-70
2023/02/14 20:13:49;;;;;;;28.53;20.70;;;4.40;99.90;;;;;;2615137;54;20170;-70
2023/02/14 20:19:37;;;;;;;29.03;23.67;;;4.40;99.90;;;;;;2615239;54;20154;-71
2023/02/14 20:25:25;;;;;;;28.97;22.40;;;4.40;99.90;;;;;;2615657;54;20258;-71
2023/02/14 20:31:14;;;;;;;30.07;23.73;;;4.30;99.90;;;;;;2615333;54;20135;-71
2023/02/14 20:37:02;;;;;;;35.60;25.20;;;4.30;99.90;;;;;;2615401;54;20374;-70
2023/02/14 20:42:49;;;;;;;35.73;24.47;;;4.10;99.90;;;;;;2615244;54;20126;-70
2023/02/14 20:48:37;;;;;;;35.27;25.20;;;4.00;99.90;;;;;;2615298;54;20134;-71
2023/02/14 20:51:49;;;;;;;32.23;23.27;;;4.10;99.90;;;;;;2614462;47;20502;-72
2023/02/14 20:54:15;;;;;;;28.17;24.97;;;4.10;99.90;;;;;;2614571;47;20238;-71
2023/02/14 21:00:04;;;;;;;37.43;23.43;;;4.10;99.90;;;;;;2615034;54;20521;-72
2023/02/14 21:05:52;;;;;;;35.70;23.33;;;3.80;99.90;;;;;;2615211;46;20427;-71
2023/02/14 21:11:40;;;;;;;36.23;23.50;;;3.70;99.90;;;;;;2615315;54;20267;-71
2023/02/14 21:17:28;;;;;;;28.67;21.90;;;3.60;99.90;;;;;;2615147;54;20435;-71
2023/02/14 21:23:15;;;;;;;28.13;22.43;;;3.60;99.90;;;;;;2615148;54;21043;-71
2023/02/14 21:29:04;;;;;;;30.53;22.10;;;3.70;99.90;;;;;;2614671;54;20154;-71
2023/02/14 21:34:51;;;;;;;30.33;21.20;;;3.80;99.90;;;;;;2615095;54;20378;-70
2023/02/14 21:40:39;;;;;;;30.80;23.70;;;4.20;99.90;;;;;;2615118;54;20130;-71
2023/02/14 21:46:30;;;;;;;31.13;23.10;;;4.20;99.90;;;;;;2615224;54;20122;-71
2023/02/14 21:56:21;;;;;;;27.63;22.77;;;4.40;99.90;;;;;;2615265;54;20334;-71
2023/02/14 22:02:10;;;;;;;29.40;22.93;;;4.00;99.90;;;;;;2615033;54;20395;-70
2023/02/14 22:07:58;;;;;;;32.17;24.77;;;4.00;99.90;;;;;;2615099;54;20491;-70
2023/02/14 22:13:46;;;;;;;36.57;25.40;;;3.90;99.90;;;;;;2614923;54;20118;-71
2023/02/14 22:19:35;;;;;;;29.57;22.10;;;3.50;99.90;;;;;;2614826;54;21198;-72
2023/02/14 22:25:24;;;;;;;27.87;22.60;;;3.40;99.90;;;;;;2614858;54;20391;-72
2023/02/14 22:31:13;;;;;;;28.23;22.77;;;3.30;99.90;;;;;;2615072;54;20458;-72
2023/02/14 22:37:00;;;;;;;29.13;22.57;;;3.70;99.90;;;;;;2615074;54;20350;-72
2023/02/14 22:42:48;;;;;;;29.43;22.20;;;3.70;99.90;;;;;;2614899;54;21382;-71
2023/02/14 22:48:37;;;;;;;29.77;23.13;;;3.30;99.90;;;;;;2614955;54;20154;-72
2023/02/14 22:51:49;;;;;;;30.20;25.27;;;3.40;99.90;;;;;;2614955;39;20951;-72
2023/02/14 22:54:15;;;;;;;36.53;24.27;;;3.60;99.90;;;;;;2614789;54;20414;-71
2023/02/14 23:00:03;;;;;;;30.80;24.03;;;3.20;99.90;;;;;;2614471;54;20386;-71
2023/02/14 23:05:57;;;;;;;27.73;22.50;;;3.20;99.90;;;;;;2614658;54;20427;-71
2023/02/14 23:11:46;;;;;;;26.13;22.23;;;2.80;99.90;;;;;;2614812;54;20507;-70
2023/02/14 23:23:40;;;;;;;30.90;23.73;;;2.60;99.90;;;;;;2614837;54;20932;-71
2023/02/14 23:29:28;;;;;;;41.17;24.37;;;2.50;99.90;;;;;;2614448;54;20127;-71
2023/02/14 23:35:16;;;;;;;29.63;23.27;;;2.50;99.90;;;;;;2615005;54;20943;-71
2023/02/14 23:47:15;;;;;;;37.00;22.73;;;2.60;99.90;;;;;;2614509;54;20345;-71
2023/02/14 23:56:24;;;;;;;27.97;22.80;;;2.20;99.90;;;;;;2615493;54;20356;-71
